Terminal Aerodrome Forecast
Issued by NWS

Current Version | Previous Version | Graphics & Text | Print | Product List | Glossary On
Versions: 1 2 3 4 5 6 7 8 9 10 11 12 13 14 15 16 17 18 19 20
000
FTUS41 KPBZ 241700
TAFMGW
TAF
KMGW 241732Z 2418/2518 02005KT P6SM SCT060 SCT250
      TEMPO 2418/2420 BKN060
     FM250900 13008KT P6SM -RA OVC025
     FM251500 18011G20KT P6SM BKN040=

USA.gov is the U.S. government's official web portal to all federal, state and local government web resources and services.